sensor_id;sensor_type;location;lat;lon;timestamp;pressure;altitude;pressure_sealevel;temperature;humidity
76603;BME280;65075;48.390;17.598;2023-03-01T00:01:44;100804.47;;;2.22;58.14
76603;BME280;65075;48.390;17.598;2023-03-01T00:04:11;100805.16;;;1.87;59.38
76603;BME280;65075;48.390;17.598;2023-03-01T00:06:38;100799.06;;;2.22;59.63
76603;BME280;65075;48.390;17.598;2023-03-01T00:09:05;100798.69;;;1.96;60.33
76603;BME280;65075;48.390;17.598;2023-03-01T00:11:34;100800.19;;;2.13;59.22
76603;BME280;65075;48.390;17.598;2023-03-01T00:14:02;100800.03;;;1.77;60.43
76603;BME280;65075;48.390;17.598;2023-03-01T00:16:44;100797.34;;;1.92;60.54
76603;BME280;65075;48.390;17.598;2023-03-01T00:19:19;100785.88;;;1.60;62.18
76603;BME280;65075;48.390;17.598;2023-03-01T00:21:46;100789.09;;;1.41;62.05
76603;BME280;65075;48.390;17.598;2023-03-01T00:24:12;100787.97;;;1.36;62.78
76603;BME280;65075;48.390;17.598;2023-03-01T00:26:41;100793.75;;;1.47;63.17
76603;BME280;65075;48.390;17.598;2023-03-01T00:29:08;100799.72;;;1.35;63.27
76603;BME280;65075;48.390;17.598;2023-03-01T00:31:34;100793.28;;;2.54;59.83
76603;BME280;65075;48.390;17.598;2023-03-01T00:34:03;100797.97;;;2.31;59.95
76603;BME280;65075;48.390;17.598;2023-03-01T00:36:36;100797.50;;;2.42;60.18
76603;BME280;65075;48.390;17.598;2023-03-01T00:39:05;100798.25;;;2.86;58.33
76603;BME280;65075;48.390;17.598;2023-03-01T00:41:32;100790.97;;;3.02;57.69
76603;BME280;65075;48.390;17.598;2023-03-01T00:44:02;100788.84;;;2.32;58.61
76603;BME280;65075;48.390;17.598;2023-03-01T00:46:30;100789.22;;;2.00;60.01
76603;BME280;65075;48.390;17.598;2023-03-01T00:48:57;100784.28;;;2.03;59.89
76603;BME280;65075;48.390;17.598;2023-03-01T00:51:27;100773.78;;;2.38;59.15
76603;BME280;65075;48.390;17.598;2023-03-01T00:53:59;100787.22;;;3.03;57.44
76603;BME280;65075;48.390;17.598;2023-03-01T00:56:27;100693.19;;;1.71;59.15
76603;BME280;65075;48.390;17.598;2023-03-01T00:58:53;100787.44;;;2.65;58.36
76603;BME280;65075;48.390;17.598;2023-03-01T01:01:25;100784.94;;;2.49;59.32
76603;BME280;65075;48.390;17.598;2023-03-01T01:03:57;100787.75;;;3.34;56.28
76603;BME280;65075;48.390;17.598;2023-03-01T01:06:44;100785.31;;;3.18;57.75
76603;BME280;65075;48.390;17.598;2023-03-01T01:09:15;100787.47;;;2.51;58.44
76603;BME280;65075;48.390;17.598;2023-03-01T01:11:50;100791.53;;;2.03;60.74
76603;BME280;65075;48.390;17.598;2023-03-01T01:14:18;100786.34;;;3.38;56.12
76603;BME280;65075;48.390;17.598;2023-03-01T01:16:45;100792.47;;;2.89;57.87
76603;BME280;65075;48.390;17.598;2023-03-01T01:19:12;100787.53;;;2.43;58.93
76603;BME280;65075;48.390;17.598;2023-03-01T01:21:40;100787.22;;;3.03;57.50
76603;BME280;65075;48.390;17.598;2023-03-01T01:24:11;100782.94;;;2.72;58.44
76603;BME280;65075;48.390;17.598;2023-03-01T01:26:37;100746.69;;;1.81;59.53
76603;BME280;65075;48.390;17.598;2023-03-01T01:29:10;100785.31;;;2.31;59.13
76603;BME280;65075;48.390;17.598;2023-03-01T01:31:48;100780.81;;;2.82;58.16
76603;BME280;65075;48.390;17.598;2023-03-01T01:34:20;100774.19;;;3.48;55.80
76603;BME280;65075;48.390;17.598;2023-03-01T01:37:01;100771.13;;;2.88;58.00
76603;BME280;65075;48.390;17.598;2023-03-01T01:39:29;100743.25;;;2.81;56.87
76603;BME280;65075;48.390;17.598;2023-03-01T01:41:57;100767.28;;;2.61;58.71
76603;BME280;65075;48.390;17.598;2023-03-01T01:44:26;100758.00;;;2.49;58.69
76603;BME280;65075;48.390;17.598;2023-03-01T01:47:08;100764.34;;;2.27;59.98
76603;BME280;65075;48.390;17.598;2023-03-01T01:49:57;100751.72;;;2.42;58.88
76603;BME280;65075;48.390;17.598;2023-03-01T01:52:31;100763.88;;;2.09;60.98
76603;BME280;65075;48.390;17.598;2023-03-01T01:55:23;100757.13;;;2.63;59.92
76603;BME280;65075;48.390;17.598;2023-03-01T01:58:01;100758.56;;;2.59;59.36
76603;BME280;65075;48.390;17.598;2023-03-01T02:00:29;100748.28;;;2.69;58.74
76603;BME280;65075;48.390;17.598;2023-03-01T02:03:02;100751.88;;;2.26;61.09
76603;BME280;65075;48.390;17.598;2023-03-01T02:05:51;100737.06;;;2.01;60.95
76603;BME280;65075;48.390;17.598;2023-03-01T02:08:35;100732.97;;;2.05;61.52
76603;BME280;65075;48.390;17.598;2023-03-01T02:11:04;100722.13;;;2.63;59.42
76603;BME280;65075;48.390;17.598;2023-03-01T02:13:37;100735.56;;;1.98;60.61
76603;BME280;65075;48.390;17.598;2023-03-01T02:16:12;100735.56;;;2.13;60.84
76603;BME280;65075;48.390;17.598;2023-03-01T02:18:59;100734.13;;;2.46;60.33
76603;BME280;65075;48.390;17.598;2023-03-01T02:21:52;100732.63;;;2.58;59.08
76603;BME280;65075;48.390;17.598;2023-03-01T02:27:52;100739.78;;;2.51;59.82
76603;BME280;65075;48.390;17.598;2023-03-01T02:30:22;100738.06;;;2.79;59.02
76603;BME280;65075;48.390;17.598;2023-03-01T02:32:52;100728.72;;;2.97;57.68
76603;BME280;65075;48.390;17.598;2023-03-01T02:35:21;100734.47;;;2.94;58.10
76603;BME280;65075;48.390;17.598;2023-03-01T02:37:47;100732.16;;;3.12;57.69
76603;BME280;65075;48.390;17.598;2023-03-01T02:40:28;100731.88;;;2.14;60.86
76603;BME280;65075;48.390;17.598;2023-03-01T02:42:58;100728.31;;;2.28;60.93
76603;BME280;65075;48.390;17.598;2023-03-01T02:45:26;100730.53;;;2.39;60.43
76603;BME280;65075;48.390;17.598;2023-03-01T02:47:57;100735.84;;;2.03;61.24
76603;BME280;65075;48.390;17.598;2023-03-01T02:56:11;100729.72;;;3.66;56.56
76603;BME280;65075;48.390;17.598;2023-03-01T02:58:44;100732.81;;;2.93;58.25
76603;BME280;65075;48.390;17.598;2023-03-01T03:01:19;100723.47;;;3.59;57.43
76603;BME280;65075;48.390;17.598;2023-03-01T03:03:46;100726.38;;;3.36;57.16
76603;BME280;65075;48.390;17.598;2023-03-01T03:06:13;100730.34;;;3.40;57.98
76603;BME280;65075;48.390;17.598;2023-03-01T03:08:39;100731.91;;;3.07;58.55
76603;BME280;65075;48.390;17.598;2023-03-01T03:11:06;100705.25;;;3.67;56.22
76603;BME280;65075;48.390;17.598;2023-03-01T03:13:33;100733.78;;;3.55;56.58
76603;BME280;65075;48.390;17.598;2023-03-01T03:15:58;100727.81;;;4.22;55.80
76603;BME280;65075;48.390;17.598;2023-03-01T03:18:28;100721.25;;;3.20;57.87
76603;BME280;65075;48.390;17.598;2023-03-01T03:20:55;100730.31;;;3.33;57.49
76603;BME280;65075;48.390;17.598;2023-03-01T03:23:23;100719.06;;;3.09;58.88
76603;BME280;65075;48.390;17.598;2023-03-01T03:25:51;100720.97;;;3.91;56.11
76603;BME280;65075;48.390;17.598;2023-03-01T03:28:18;100724.56;;;3.43;57.49
76603;BME280;65075;48.390;17.598;2023-03-01T03:30:45;100715.53;;;3.57;57.51
76603;BME280;65075;48.390;17.598;2023-03-01T03:33:11;100721.00;;;3.36;57.53
76603;BME280;65075;48.390;17.598;2023-03-01T03:35:50;100711.38;;;4.71;54.51
76603;BME280;65075;48.390;17.598;2023-03-01T03:38:19;100706.50;;;3.71;56.57
76603;BME280;65075;48.390;17.598;2023-03-01T03:41:08;100710.88;;;3.72;57.64
76603;BME280;65075;48.390;17.598;2023-03-01T03:43:37;100716.63;;;3.35;57.92
76603;BME280;65075;48.390;17.598;2023-03-01T03:46:04;100712.91;;;3.36;58.03
76603;BME280;65075;48.390;17.598;2023-03-01T03:48:43;100716.22;;;3.17;58.96
76603;BME280;65075;48.390;17.598;2023-03-01T03:51:15;100701.47;;;2.70;60.45
76603;BME280;65075;48.390;17.598;2023-03-01T03:53:43;100711.63;;;3.94;56.49
76603;BME280;65075;48.390;17.598;2023-03-01T03:56:09;100702.94;;;3.64;57.07
76603;BME280;65075;48.390;17.598;2023-03-01T03:58:37;100705.03;;;4.44;55.37
76603;BME280;65075;48.390;17.598;2023-03-01T04:01:04;100713.44;;;3.25;58.11
76603;BME280;65075;48.390;17.598;2023-03-01T04:03:32;100703.50;;;3.32;57.48
76603;BME280;65075;48.390;17.598;2023-03-01T04:05:59;100707.97;;;2.97;58.68
76603;BME280;65075;48.390;17.598;2023-03-01T04:08:28;100710.44;;;3.96;55.60
76603;BME280;65075;48.390;17.598;2023-03-01T04:11:00;100705.13;;;4.16;55.25
76603;BME280;65075;48.390;17.598;2023-03-01T04:13:51;100710.47;;;2.99;57.65
76603;BME280;65075;48.390;17.598;2023-03-01T04:16:19;100707.06;;;2.54;59.13
76603;BME280;65075;48.390;17.598;2023-03-01T04:18:47;100715.00;;;2.41;60.23
76603;BME280;65075;48.390;17.598;2023-03-01T04:21:14;100701.19;;;2.44;59.17
76603;BME280;65075;48.390;17.598;2023-03-01T04:23:45;100693.91;;;2.59;58.44
76603;BME280;65075;48.390;17.598;2023-03-01T04:26:12;100696.31;;;2.54;59.05
76603;BME280;65075;48.390;17.598;2023-03-01T04:28:40;100697.13;;;2.91;57.82
76603;BME280;65075;48.390;17.598;2023-03-01T04:31:16;100692.69;;;3.04;57.90
76603;BME280;65075;48.390;17.598;2023-03-01T04:33:54;100682.66;;;2.56;57.62
76603;BME280;65075;48.390;17.598;2023-03-01T04:36:25;100704.75;;;2.51;58.85
76603;BME280;65075;48.390;17.598;2023-03-01T04:38:53;100710.56;;;2.69;58.27
76603;BME280;65075;48.390;17.598;2023-03-01T04:41:22;100703.19;;;2.57;58.70
76603;BME280;65075;48.390;17.598;2023-03-01T04:43:49;100699.94;;;2.11;60.05
76603;BME280;65075;48.390;17.598;2023-03-01T04:46:19;100697.41;;;2.24;59.78
76603;BME280;65075;48.390;17.598;2023-03-01T04:48:47;100704.88;;;2.79;58.56
76603;BME280;65075;48.390;17.598;2023-03-01T04:51:14;100701.19;;;2.44;59.26
76603;BME280;65075;48.390;17.598;2023-03-01T04:53:43;100704.19;;;2.70;58.86
76603;BME280;65075;48.390;17.598;2023-03-01T04:56:10;100699.34;;;2.30;59.70
76603;BME280;65075;48.390;17.598;2023-03-01T04:58:36;100697.88;;;2.27;59.69
76603;BME280;65075;48.390;17.598;2023-03-01T05:01:09;100683.47;;;2.20;60.67
76603;BME280;65075;48.390;17.598;2023-03-01T05:03:55;100696.28;;;2.33;59.93
76603;BME280;65075;48.390;17.598;2023-03-01T05:06:22;100701.59;;;2.12;61.29
76603;BME280;65075;48.390;17.598;2023-03-01T05:08:49;100700.03;;;2.53;59.48
76603;BME280;65075;48.390;17.598;2023-03-01T05:11:16;100698.03;;;2.26;60.57
76603;BME280;65075;48.390;17.598;2023-03-01T05:13:41;100690.53;;;2.21;60.73
76603;BME280;65075;48.390;17.598;2023-03-01T05:16:08;100621.19;;;1.73;60.82
76603;BME280;65075;48.390;17.598;2023-03-01T05:18:38;100703.16;;;3.14;58.48
76603;BME280;65075;48.390;17.598;2023-03-01T05:21:20;100703.66;;;3.24;58.15
76603;BME280;65075;48.390;17.598;2023-03-01T05:23:47;100700.34;;;2.79;59.08
76603;BME280;65075;48.390;17.598;2023-03-01T05:26:14;100699.94;;;3.25;58.07
76603;BME280;65075;48.390;17.598;2023-03-01T05:28:42;100700.03;;;2.53;60.63
76603;BME280;65075;48.390;17.598;2023-03-01T05:31:10;100708.53;;;2.71;59.83
76603;BME280;65075;48.390;17.598;2023-03-01T05:33:40;100719.28;;;2.71;60.05
76603;BME280;65075;48.390;17.598;2023-03-01T05:36:09;100702.91;;;2.87;59.23
76603;BME280;65075;48.390;17.598;2023-03-01T05:38:35;100699.84;;;2.91;58.72
76603;BME280;65075;48.390;17.598;2023-03-01T05:41:02;100685.19;;;3.00;57.90
76603;BME280;65075;48.390;17.598;2023-03-01T05:43:31;100696.88;;;3.07;58.23
76603;BME280;65075;48.390;17.598;2023-03-01T05:46:01;100693.53;;;3.05;58.33
76603;BME280;65075;48.390;17.598;2023-03-01T05:48:28;100684.81;;;4.27;55.44
76603;BME280;65075;48.390;17.598;2023-03-01T05:50:55;100705.34;;;2.82;58.23
76603;BME280;65075;48.390;17.598;2023-03-01T05:53:26;100671.50;;;2.80;58.84
76603;BME280;65075;48.390;17.598;2023-03-01T05:55:53;100695.84;;;2.86;58.71
76603;BME280;65075;48.390;17.598;2023-03-01T05:58:23;100695.31;;;3.19;58.43
76603;BME280;65075;48.390;17.598;2023-03-01T06:00:50;100690.09;;;4.00;54.81
76603;BME280;65075;48.390;17.598;2023-03-01T06:03:18;100697.69;;;3.56;56.09
76603;BME280;65075;48.390;17.598;2023-03-01T06:05:45;100706.78;;;3.00;57.77
76603;BME280;65075;48.390;17.598;2023-03-01T06:08:16;100705.31;;;3.74;55.98
76603;BME280;65075;48.390;17.598;2023-03-01T06:10:43;100721.91;;;2.29;59.80
76603;BME280;65075;48.390;17.598;2023-03-01T06:13:09;100703.50;;;2.68;58.65
76603;BME280;65075;48.390;17.598;2023-03-01T06:15:36;100732.31;;;3.25;56.55
76603;BME280;65075;48.390;17.598;2023-03-01T06:18:03;100728.22;;;2.72;59.07
76603;BME280;65075;48.390;17.598;2023-03-01T06:20:30;100679.09;;;2.34;59.21
76603;BME280;65075;48.390;17.598;2023-03-01T06:22:57;100727.69;;;3.19;57.94
76603;BME280;65075;48.390;17.598;2023-03-01T06:25:25;100721.22;;;3.41;55.08
76603;BME280;65075;48.390;17.598;2023-03-01T06:27:53;100726.13;;;3.86;54.31
76603;BME280;65075;48.390;17.598;2023-03-01T06:30:23;100716.94;;;2.83;56.90
76603;BME280;65075;48.390;17.598;2023-03-01T06:32:51;100724.91;;;3.33;55.40
76603;BME280;65075;48.390;17.598;2023-03-01T06:35:19;100725.47;;;3.50;54.78
76603;BME280;65075;48.390;17.598;2023-03-01T06:37:49;100730.78;;;3.65;54.82
76603;BME280;65075;48.390;17.598;2023-03-01T06:40:15;100717.47;;;3.97;53.93
76603;BME280;65075;48.390;17.598;2023-03-01T06:42:47;100740.19;;;5.17;51.03
76603;BME280;65075;48.390;17.598;2023-03-01T06:45:20;100725.31;;;4.74;52.17
76603;BME280;65075;48.390;17.598;2023-03-01T06:47:47;100728.56;;;5.50;49.59
76603;BME280;65075;48.390;17.598;2023-03-01T06:50:15;100733.28;;;4.00;53.63
76603;BME280;65075;48.390;17.598;2023-03-01T06:52:43;100722.91;;;4.38;51.95
76603;BME280;65075;48.390;17.598;2023-03-01T06:55:15;100727.69;;;5.03;51.01
76603;BME280;65075;48.390;17.598;2023-03-01T06:57:42;100716.50;;;4.52;51.54
76603;BME280;65075;48.390;17.598;2023-03-01T07:00:09;100682.94;;;4.88;49.87
76603;BME280;65075;48.390;17.598;2023-03-01T07:02:36;100723.91;;;4.91;51.65
76603;BME280;65075;48.390;17.598;2023-03-01T07:05:03;100696.28;;;5.35;50.26
76603;BME280;65075;48.390;17.598;2023-03-01T07:07:30;100729.59;;;5.36;49.67
76603;BME280;65075;48.390;17.598;2023-03-01T07:09:57;100731.13;;;4.71;51.39
76603;BME280;65075;48.390;17.598;2023-03-01T07:12:24;100738.59;;;4.69;51.33
76603;BME280;65075;48.390;17.598;2023-03-01T07:14:51;100722.06;;;4.38;52.36
76603;BME280;65075;48.390;17.598;2023-03-01T07:17:18;100719.19;;;5.26;50.36
76603;BME280;65075;48.390;17.598;2023-03-01T07:19:46;100712.31;;;5.10;50.89
76603;BME280;65075;48.390;17.598;2023-03-01T07:22:13;100714.97;;;4.91;50.91
76603;BME280;65075;48.390;17.598;2023-03-01T07:24:42;100726.44;;;4.45;52.50
76603;BME280;65075;48.390;17.598;2023-03-01T07:27:09;100722.75;;;4.59;52.82
76603;BME280;65075;48.390;17.598;2023-03-01T07:29:36;100722.41;;;4.22;52.65
76603;BME280;65075;48.390;17.598;2023-03-01T07:32:04;100726.88;;;5.88;49.12
76603;BME280;65075;48.390;17.598;2023-03-01T07:34:31;100723.09;;;6.15;48.50
76603;BME280;65075;48.390;17.598;2023-03-01T07:36:58;100728.41;;;6.93;47.38
76603;BME280;65075;48.390;17.598;2023-03-01T07:39:25;100727.34;;;4.59;51.76
76603;BME280;65075;48.390;17.598;2023-03-01T07:41:53;100721.28;;;4.50;52.34
76603;BME280;65075;48.390;17.598;2023-03-01T07:44:23;100732.66;;;4.93;51.46
76603;BME280;65075;48.390;17.598;2023-03-01T07:46:50;100731.31;;;4.16;53.02
76603;BME280;65075;48.390;17.598;2023-03-01T07:49:19;100719.34;;;4.38;53.14
76603;BME280;65075;48.390;17.598;2023-03-01T07:51:47;100719.56;;;4.90;51.93
76603;BME280;65075;48.390;17.598;2023-03-01T07:54:14;100712.72;;;5.07;52.24
76603;BME280;65075;48.390;17.598;2023-03-01T07:56:39;100707.09;;;5.15;51.70
76603;BME280;65075;48.390;17.598;2023-03-01T07:59:07;100705.38;;;4.88;51.85
76603;BME280;65075;48.390;17.598;2023-03-01T08:01:34;100650.91;;;5.17;49.57
76603;BME280;65075;48.390;17.598;2023-03-01T08:04:02;100708.56;;;5.51;51.09
76603;BME280;65075;48.390;17.598;2023-03-01T08:06:28;100716.66;;;6.16;48.71
76603;BME280;65075;48.390;17.598;2023-03-01T08:08:57;100685.41;;;5.94;48.65
76603;BME280;65075;48.390;17.598;2023-03-01T08:11:25;100715.69;;;6.49;48.07
76603;BME280;65075;48.390;17.598;2023-03-01T08:13:55;100708.63;;;7.17;45.70
76603;BME280;65075;48.390;17.598;2023-03-01T08:16:23;100703.06;;;8.22;44.37
76603;BME280;65075;48.390;17.598;2023-03-01T08:18:49;100688.53;;;8.83;42.52
76603;BME280;65075;48.390;17.598;2023-03-01T08:21:18;100690.41;;;8.34;43.73
76603;BME280;65075;48.390;17.598;2023-03-01T08:23:46;100670.72;;;8.98;41.45
76603;BME280;65075;48.390;17.598;2023-03-01T08:26:19;100702.84;;;8.60;43.27
76603;BME280;65075;48.390;17.598;2023-03-01T08:28:49;100671.91;;;8.25;43.24
76603;BME280;65075;48.390;17.598;2023-03-01T08:31:23;100698.56;;;8.52;42.92
76603;BME280;65075;48.390;17.598;2023-03-01T08:33:52;100698.81;;;8.81;41.60
76603;BME280;65075;48.390;17.598;2023-03-01T08:36:27;100702.84;;;9.72;41.12
76603;BME280;65075;48.390;17.598;2023-03-01T08:38:55;100706.16;;;9.10;41.59
76603;BME280;65075;48.390;17.598;2023-03-01T08:41:22;100698.00;;;8.62;43.67
76603;BME280;65075;48.390;17.598;2023-03-01T08:43:53;100704.72;;;9.60;41.72
76603;BME280;65075;48.390;17.598;2023-03-01T08:46:32;100706.56;;;10.93;38.22
76603;BME280;65075;48.390;17.598;2023-03-01T08:49:06;100680.41;;;9.94;39.14
76603;BME280;65075;48.390;17.598;2023-03-01T08:51:36;100668.00;;;8.69;41.65
76603;BME280;65075;48.390;17.598;2023-03-01T08:54:11;100690.34;;;7.06;46.37
76603;BME280;65075;48.390;17.598;2023-03-01T08:56:38;100697.09;;;8.98;42.13
76603;BME280;65075;48.390;17.598;2023-03-01T08:59:07;100689.78;;;9.63;40.49
76603;BME280;65075;48.390;17.598;2023-03-01T09:01:33;100677.81;;;10.22;38.87
76603;BME280;65075;48.390;17.598;2023-03-01T09:04:00;100681.47;;;10.67;38.26
76603;BME280;65075;48.390;17.598;2023-03-01T09:06:25;100671.66;;;10.15;38.95
76603;BME280;65075;48.390;17.598;2023-03-01T09:08:52;100675.69;;;9.54;40.68
76603;BME280;65075;48.390;17.598;2023-03-01T09:11:24;100691.88;;;10.42;39.29
76603;BME280;65075;48.390;17.598;2023-03-01T09:13:49;100689.03;;;10.49;38.77
76603;BME280;65075;48.390;17.598;2023-03-01T09:16:27;100695.34;;;9.79;40.24
76603;BME280;65075;48.390;17.598;2023-03-01T09:18:56;100683.97;;;9.94;38.50
76603;BME280;65075;48.390;17.598;2023-03-01T09:21:23;100671.22;;;9.07;40.40
76603;BME280;65075;48.390;17.598;2023-03-01T09:23:50;100643.53;;;10.03;39.18
76603;BME280;65075;48.390;17.598;2023-03-01T09:26:21;100671.53;;;11.18;37.12
76603;BME280;65075;48.390;17.598;2023-03-01T09:28:54;100685.66;;;8.78;42.55
76603;BME280;65075;48.390;17.598;2023-03-01T09:31:22;100688.41;;;6.81;45.51
76603;BME280;65075;48.390;17.598;2023-03-01T09:33:52;100672.69;;;7.21;45.32
76603;BME280;65075;48.390;17.598;2023-03-01T09:36:20;100688.41;;;8.05;44.75
76603;BME280;65075;48.390;17.598;2023-03-01T09:38:48;100674.34;;;6.60;46.78
76603;BME280;65075;48.390;17.598;2023-03-01T09:41:34;100683.38;;;8.27;43.25
76603;BME280;65075;48.390;17.598;2023-03-01T09:47:00;100673.25;;;8.34;43.71
76603;BME280;65075;48.390;17.598;2023-03-01T09:49:30;100658.81;;;8.51;43.35
76603;BME280;65075;48.390;17.598;2023-03-01T09:52:24;100658.94;;;10.09;39.84
76603;BME280;65075;48.390;17.598;2023-03-01T09:54:59;100646.75;;;10.00;39.73
76603;BME280;65075;48.390;17.598;2023-03-01T09:58:00;100645.34;;;9.86;40.91
76603;BME280;65075;48.390;17.598;2023-03-01T10:00:46;100634.50;;;7.66;44.13
76603;BME280;65075;48.390;17.598;2023-03-01T10:06:21;100644.06;;;8.59;42.21
76603;BME280;65075;48.390;17.598;2023-03-01T10:09:10;100631.75;;;10.37;38.38
76603;BME280;65075;48.390;17.598;2023-03-01T10:11:52;100647.47;;;10.86;37.84
76603;BME280;65075;48.390;17.598;2023-03-01T10:14:51;100652.63;;;10.71;38.60
76603;BME280;65075;48.390;17.598;2023-03-01T10:17:46;100646.25;;;10.66;37.35
76603;BME280;65075;48.390;17.598;2023-03-01T10:20:31;100639.91;;;10.49;37.75
76603;BME280;65075;48.390;17.598;2023-03-01T10:23:00;100629.00;;;9.51;39.50
76603;BME280;65075;48.390;17.598;2023-03-01T10:28:29;100637.22;;;8.98;40.76
76603;BME280;65075;48.390;17.598;2023-03-01T10:30:59;100629.34;;;9.43;41.61
76603;BME280;65075;48.390;17.598;2023-03-01T10:33:37;100629.94;;;9.56;39.51
76603;BME280;65075;48.390;17.598;2023-03-01T10:36:09;100627.72;;;11.46;37.25
76603;BME280;65075;48.390;17.598;2023-03-01T10:38:56;100627.19;;;10.54;37.97
76603;BME280;65075;48.390;17.598;2023-03-01T10:41:26;100618.00;;;10.88;37.06
76603;BME280;65075;48.390;17.598;2023-03-01T10:43:57;100609.63;;;10.22;38.55
76603;BME280;65075;48.390;17.598;2023-03-01T10:46:36;100611.53;;;11.94;35.70
76603;BME280;65075;48.390;17.598;2023-03-01T10:49:17;100604.84;;;9.77;39.50
76603;BME280;65075;48.390;17.598;2023-03-01T10:51:56;100601.66;;;11.22;36.63
76603;BME280;65075;48.390;17.598;2023-03-01T10:54:36;100610.50;;;10.67;37.26
76603;BME280;65075;48.390;17.598;2023-03-01T10:57:04;100598.09;;;11.38;36.74
76603;BME280;65075;48.390;17.598;2023-03-01T10:59:40;100593.66;;;11.70;36.90
76603;BME280;65075;48.390;17.598;2023-03-01T11:02:15;100577.72;;;9.01;41.50
76603;BME280;65075;48.390;17.598;2023-03-01T11:05:19;100584.31;;;8.94;42.13
76603;BME280;65075;48.390;17.598;2023-03-01T11:08:00;100592.16;;;9.83;40.29
76603;BME280;65075;48.390;17.598;2023-03-01T11:10:35;100561.06;;;10.07;39.70
76603;BME280;65075;48.390;17.598;2023-03-01T11:13:26;100577.88;;;10.72;38.40
76603;BME280;65075;48.390;17.598;2023-03-01T11:16:10;100565.13;;;10.61;39.31
76603;BME280;65075;48.390;17.598;2023-03-01T11:18:42;100558.09;;;11.32;37.83
76603;BME280;65075;48.390;17.598;2023-03-01T11:21:08;100528.38;;;10.52;38.84
76603;BME280;65075;48.390;17.598;2023-03-01T11:23:39;100552.56;;;11.10;37.51
76603;BME280;65075;48.390;17.598;2023-03-01T11:26:12;100567.19;;;9.51;42.04
76603;BME280;65075;48.390;17.598;2023-03-01T11:28:52;100561.91;;;10.64;38.83
76603;BME280;65075;48.390;17.598;2023-03-01T11:31:24;100560.66;;;11.22;38.26
76603;BME280;65075;48.390;17.598;2023-03-01T11:34:09;100557.09;;;8.94;43.22
76603;BME280;65075;48.390;17.598;2023-03-01T11:36:56;100529.59;;;8.01;44.61
76603;BME280;65075;48.390;17.598;2023-03-01T11:39:53;100552.28;;;9.94;41.09
76603;BME280;65075;48.390;17.598;2023-03-01T11:45:08;100523.06;;;9.77;39.71
76603;BME280;65075;48.390;17.598;2023-03-01T11:50:50;100536.28;;;10.99;38.41
76603;BME280;65075;48.390;17.598;2023-03-01T11:56:39;100539.44;;;11.07;38.42
76603;BME280;65075;48.390;17.598;2023-03-01T11:59:29;100535.81;;;10.57;39.25
76603;BME280;65075;48.390;17.598;2023-03-01T12:02:27;100531.03;;;11.47;37.77
76603;BME280;65075;48.390;17.598;2023-03-01T12:23:33;100515.41;;;12.93;34.21
76603;BME280;65075;48.390;17.598;2023-03-01T12:32:28;100508.56;;;12.90;35.09
76603;BME280;65075;48.390;17.598;2023-03-01T12:38:39;100508.13;;;11.15;38.17
76603;BME280;65075;48.390;17.598;2023-03-01T12:42:18;100510.34;;;11.56;37.31
76603;BME280;65075;48.390;17.598;2023-03-01T12:50:04;100493.22;;;11.82;36.82
76603;BME280;65075;48.390;17.598;2023-03-01T12:52:56;100488.47;;;11.73;36.36
76603;BME280;65075;48.390;17.598;2023-03-01T12:55:36;100493.66;;;9.40;40.99
76603;BME280;65075;48.390;17.598;2023-03-01T13:01:31;100460.00;;;10.75;38.95
76603;BME280;65075;48.390;17.598;2023-03-01T13:04:50;100478.84;;;10.93;39.24
76603;BME280;65075;48.390;17.598;2023-03-01T13:07:31;100465.41;;;11.25;38.92
76603;BME280;65075;48.390;17.598;2023-03-01T13:15:33;100465.91;;;12.99;34.99
76603;BME280;65075;48.390;17.598;2023-03-01T13:18:30;100478.06;;;12.50;35.88
76603;BME280;65075;48.390;17.598;2023-03-01T13:21:11;100475.13;;;10.33;40.09
76603;BME280;65075;48.390;17.598;2023-03-01T13:23:39;100456.38;;;12.12;37.99
76603;BME280;65075;48.390;17.598;2023-03-01T13:26:18;100472.88;;;12.80;35.75
76603;BME280;65075;48.390;17.598;2023-03-01T13:28:56;100477.75;;;14.24;33.14
76603;BME280;65075;48.390;17.598;2023-03-01T13:33:59;100466.44;;;13.01;34.92
76603;BME280;65075;48.390;17.598;2023-03-01T13:39:32;100481.81;;;9.86;41.46
76603;BME280;65075;48.390;17.598;2023-03-01T13:42:38;100480.84;;;9.92;41.74
76603;BME280;65075;48.390;17.598;2023-03-01T13:45:19;100479.69;;;10.77;40.28
76603;BME280;65075;48.390;17.598;2023-03-01T13:48:15;100481.97;;;9.67;42.77
76603;BME280;65075;48.390;17.598;2023-03-01T13:50:47;100475.28;;;10.76;39.14
76603;BME280;65075;48.390;17.598;2023-03-01T13:53:22;100470.31;;;10.12;40.76
76603;BME280;65075;48.390;17.598;2023-03-01T14:01:35;100465.44;;;9.57;42.21
76603;BME280;65075;48.390;17.598;2023-03-01T14:04:32;100454.78;;;11.29;40.01
76603;BME280;65075;48.390;17.598;2023-03-01T14:07:22;100462.19;;;12.47;36.68
76603;BME280;65075;48.390;17.598;2023-03-01T14:10:06;100423.09;;;11.28;38.70
76603;BME280;65075;48.390;17.598;2023-03-01T14:12:56;100455.38;;;11.96;38.16
76603;BME280;65075;48.390;17.598;2023-03-01T14:15:56;100445.72;;;11.45;38.98
76603;BME280;65075;48.390;17.598;2023-03-01T14:21:47;100436.88;;;11.38;38.60
76603;BME280;65075;48.390;17.598;2023-03-01T14:24:22;100437.63;;;11.72;39.07
76603;BME280;65075;48.390;17.598;2023-03-01T14:26:50;100410.66;;;12.39;37.74
76603;BME280;65075;48.390;17.598;2023-03-01T14:29:33;100421.00;;;13.00;36.53
76603;BME280;65075;48.390;17.598;2023-03-01T14:32:31;100411.31;;;12.88;36.07
76603;BME280;65075;48.390;17.598;2023-03-01T14:35:00;100416.06;;;13.02;35.80
76603;BME280;65075;48.390;17.598;2023-03-01T14:37:32;100421.41;;;13.81;34.62
76603;BME280;65075;48.390;17.598;2023-03-01T14:40:03;100400.44;;;12.24;36.27
76603;BME280;65075;48.390;17.598;2023-03-01T14:42:35;100420.38;;;12.93;35.65